createdAt,value
2019-01-14T00:00:07.728Z,939.60
2019-01-14T00:02:34.043Z,939.60
2019-01-14T00:05:00.356Z,939.53
2019-01-14T00:07:26.655Z,939.57
2019-01-14T00:09:52.959Z,939.54
2019-01-14T00:12:19.239Z,939.58
2019-01-14T00:14:45.536Z,939.55
2019-01-14T00:17:11.872Z,939.52
2019-01-14T00:19:38.187Z,939.51
2019-01-14T00:22:04.490Z,939.47
2019-01-14T00:24:30.801Z,939.55
2019-01-14T00:26:57.115Z,939.50
2019-01-14T00:29:23.406Z,939.50
2019-01-14T00:31:49.704Z,939.44
2019-01-14T00:34:16.027Z,939.45
2019-01-14T00:36:42.335Z,939.47
2019-01-14T00:39:08.635Z,939.42
2019-01-14T00:41:34.983Z,939.47
2019-01-14T00:44:01.291Z,939.55
2019-01-14T00:46:27.603Z,939.57
2019-01-14T00:48:53.904Z,939.58
2019-01-14T00:51:20.199Z,939.56
2019-01-14T00:53:46.536Z,939.51
2019-01-14T00:56:12.846Z,939.53
2019-01-14T00:58:39.165Z,939.48
2019-01-14T01:01:05.473Z,939.46
2019-01-14T01:03:31.773Z,939.45
2019-01-14T01:05:58.109Z,939.47
2019-01-14T01:08:24.402Z,939.45
2019-01-14T01:10:50.701Z,939.45
2019-01-14T01:13:17.002Z,939.38
2019-01-14T01:15:43.298Z,939.33
2019-01-14T01:18:09.639Z,939.34
2019-01-14T01:20:35.938Z,939.29
2019-01-14T01:23:02.249Z,939.27
2019-01-14T01:25:28.555Z,939.23
2019-01-14T01:27:54.849Z,939.20
2019-01-14T01:30:21.167Z,939.12
2019-01-14T01:32:47.470Z,939.04
2019-01-14T01:35:13.790Z,939.04
2019-01-14T01:37:40.111Z,939.03
2019-01-14T01:40:06.396Z,939.00
2019-01-14T01:42:32.696Z,938.92
2019-01-14T01:44:59.006Z,938.86
2019-01-14T01:47:25.326Z,938.98
2019-01-14T01:49:51.626Z,939.00
2019-01-14T01:52:17.948Z,938.98
2019-01-14T01:54:44.245Z,938.92
2019-01-14T01:57:10.544Z,938.88
2019-01-14T01:59:36.843Z,938.87
2019-01-14T02:02:03.157Z,938.75
2019-01-14T02:04:29.462Z,938.71
2019-01-14T02:06:55.755Z,938.64
2019-01-14T02:09:22.051Z,938.50
2019-01-14T02:11:48.356Z,938.60
2019-01-14T02:14:14.698Z,938.59
2019-01-14T02:16:41.017Z,938.54
2019-01-14T02:19:07.316Z,938.54
2019-01-14T02:21:33.621Z,938.50
2019-01-14T02:23:59.929Z,938.47
2019-01-14T02:26:26.252Z,938.42
2019-01-14T02:28:52.553Z,938.33
2019-01-14T02:31:18.847Z,938.23
2019-01-14T02:33:45.156Z,938.21
2019-01-14T02:36:11.452Z,938.14
2019-01-14T02:38:37.759Z,938.09
2019-01-14T02:41:04.091Z,938.01
2019-01-14T02:43:30.402Z,937.97
2019-01-14T02:45:56.708Z,937.88
2019-01-14T02:48:23.064Z,937.84
2019-01-14T02:50:49.362Z,937.77
2019-01-14T02:53:15.686Z,937.72
2019-01-14T02:55:42.000Z,937.73
2019-01-14T02:58:08.306Z,937.83
2019-01-14T03:00:34.605Z,937.82
2019-01-14T03:03:00.902Z,937.94
2019-01-14T03:05:27.258Z,937.94
2019-01-14T03:07:53.497Z,937.86
2019-01-14T03:10:19.810Z,937.85
2019-01-14T03:12:46.109Z,937.88
2019-01-14T03:15:12.409Z,937.82
2019-01-14T03:17:38.730Z,937.76
2019-01-14T03:20:05.043Z,937.70
2019-01-14T03:22:31.336Z,937.60
2019-01-14T03:24:58.129Z,937.67
2019-01-14T03:27:23.954Z,937.66
2019-01-14T03:29:50.250Z,937.57
2019-01-14T03:32:16.573Z,937.60
2019-01-14T03:34:42.886Z,937.58
2019-01-14T03:37:09.185Z,937.50
2019-01-14T03:39:35.488Z,937.57
2019-01-14T03:42:01.802Z,937.57
2019-01-14T03:44:28.114Z,937.68
2019-01-14T03:46:54.413Z,937.76
2019-01-14T03:49:20.723Z,937.84
2019-01-14T03:51:47.029Z,937.92
2019-01-14T03:54:13.324Z,937.85
2019-01-14T03:56:39.645Z,937.76
2019-01-14T03:59:05.945Z,937.84
2019-01-14T04:01:32.245Z,937.86
2019-01-14T04:03:58.551Z,937.84
2019-01-14T04:06:24.842Z,937.83
2019-01-14T04:08:51.140Z,937.80
2019-01-14T04:11:17.442Z,937.76
2019-01-14T04:13:43.751Z,937.74
2019-01-14T04:16:10.068Z,937.65
2019-01-14T04:18:36.355Z,937.62
2019-01-14T04:21:02.673Z,937.54
2019-01-14T04:23:28.995Z,937.39
2019-01-14T04:25:55.295Z,937.44
2019-01-14T04:28:21.596Z,937.45
2019-01-14T04:30:47.896Z,937.46
2019-01-14T04:33:14.234Z,937.42
2019-01-14T04:35:40.551Z,937.39
2019-01-14T04:38:06.863Z,937.32
2019-01-14T04:40:33.165Z,937.34
2019-01-14T04:42:59.465Z,937.33
2019-01-14T04:45:25.779Z,937.24
2019-01-14T04:47:52.082Z,937.35
2019-01-14T04:50:18.393Z,937.41
2019-01-14T04:52:44.689Z,937.45
2019-01-14T04:55:10.998Z,937.40
2019-01-14T04:57:37.303Z,937.35
2019-01-14T05:00:03.628Z,937.35
2019-01-14T05:02:29.937Z,937.28
2019-01-14T05:04:56.241Z,937.28
2019-01-14T05:07:29.317Z,937.13
2019-01-14T05:09:48.835Z,937.03
2019-01-14T05:12:15.133Z,937.10
2019-01-14T05:14:41.436Z,937.15
2019-01-14T05:17:07.756Z,937.14
2019-01-14T05:19:34.059Z,937.35
2019-01-14T05:22:00.371Z,937.34
2019-01-14T05:24:26.664Z,937.35
2019-01-14T05:26:52.982Z,937.32
2019-01-14T05:29:19.289Z,937.39
2019-01-14T05:31:45.602Z,937.38
2019-01-14T05:34:11.902Z,937.26
2019-01-14T05:36:38.196Z,937.26
2019-01-14T05:39:04.521Z,937.38
2019-01-14T05:41:30.822Z,937.38
2019-01-14T05:43:57.199Z,937.41
2019-01-14T05:46:23.509Z,937.45
2019-01-14T05:48:49.811Z,937.49
2019-01-14T05:51:16.108Z,937.57
2019-01-14T05:53:42.429Z,937.52
2019-01-14T05:56:08.730Z,937.50
2019-01-14T05:58:37.005Z,937.53
2019-01-14T06:01:01.798Z,937.44
2019-01-14T06:03:28.069Z,937.52
2019-01-14T06:05:54.368Z,937.55
2019-01-14T06:08:20.680Z,937.41
2019-01-14T06:10:46.985Z,937.39
2019-01-14T06:13:13.298Z,937.41
2019-01-14T06:15:39.612Z,937.50
2019-01-14T06:18:05.913Z,937.61
2019-01-14T06:20:32.225Z,937.48
2019-01-14T06:22:58.538Z,937.49
2019-01-14T06:25:24.858Z,937.39
2019-01-14T06:27:51.160Z,937.29
2019-01-14T06:30:17.463Z,937.23
2019-01-14T06:32:43.779Z,937.19
2019-01-14T06:35:10.092Z,937.17
2019-01-14T06:37:36.388Z,937.08
2019-01-14T06:40:02.692Z,937.11
2019-01-14T06:42:28.984Z,937.03
2019-01-14T06:44:55.286Z,937.15
2019-01-14T06:47:21.584Z,937.29
2019-01-14T06:49:47.879Z,937.29
2019-01-14T06:52:14.184Z,937.35
2019-01-14T06:54:40.485Z,937.43
2019-01-14T06:57:06.810Z,937.42
2019-01-14T06:59:33.137Z,937.50
2019-01-14T07:01:59.432Z,937.44
2019-01-14T07:04:25.752Z,937.46
2019-01-14T07:06:52.053Z,937.43
2019-01-14T07:09:18.358Z,937.43
2019-01-14T07:11:44.693Z,937.50
2019-01-14T07:14:10.997Z,937.47
2019-01-14T07:16:37.299Z,937.53
2019-01-14T07:19:03.602Z,937.54
2019-01-14T07:21:29.930Z,937.46
2019-01-14T07:23:56.233Z,937.43
2019-01-14T07:26:22.550Z,937.41
2019-01-14T07:28:48.876Z,937.33
2019-01-14T07:31:15.167Z,937.27
2019-01-14T07:33:41.477Z,937.34
2019-01-14T07:36:07.797Z,937.38
2019-01-14T07:38:34.095Z,937.44
2019-01-14T07:41:00.394Z,937.37
2019-01-14T07:43:26.689Z,937.23
2019-01-14T07:45:52.995Z,937.27
2019-01-14T07:48:19.313Z,937.30
2019-01-14T07:50:45.620Z,937.29
2019-01-14T07:53:11.944Z,937.29
2019-01-14T07:55:38.253Z,937.30
2019-01-14T07:58:04.558Z,937.35
2019-01-14T08:00:30.874Z,937.33
2019-01-14T08:02:57.174Z,937.42
2019-01-14T08:05:23.468Z,937.49
2019-01-14T08:07:49.790Z,937.55
2019-01-14T08:10:16.092Z,937.54
2019-01-14T08:12:42.394Z,937.48
2019-01-14T08:15:08.708Z,937.55
2019-01-14T08:17:35.027Z,937.59
2019-01-14T08:20:01.354Z,937.59
2019-01-14T08:22:27.642Z,937.58
2019-01-14T08:24:53.945Z,937.57
2019-01-14T08:27:20.244Z,937.49
2019-01-14T08:29:46.562Z,937.46
2019-01-14T08:32:12.870Z,937.58
2019-01-14T08:34:39.170Z,937.60
2019-01-14T08:37:05.488Z,937.61
2019-01-14T08:39:31.805Z,937.55
2019-01-14T08:41:58.108Z,937.59
2019-01-14T08:44:24.404Z,937.62
2019-01-14T08:46:50.715Z,937.72
2019-01-14T08:49:17.030Z,937.71
2019-01-14T08:51:43.361Z,937.61
2019-01-14T08:54:09.680Z,937.65
2019-01-14T08:56:36.005Z,937.67
2019-01-14T08:59:02.320Z,937.68
2019-01-14T09:01:28.630Z,937.67
2019-01-14T09:03:54.933Z,937.75
2019-01-14T09:06:21.263Z,937.69
2019-01-14T09:08:47.577Z,937.68
2019-01-14T09:11:13.892Z,937.60
2019-01-14T09:13:40.194Z,937.50
2019-01-14T09:16:06.491Z,937.48
2019-01-14T09:18:32.812Z,937.47
2019-01-14T09:20:59.127Z,937.38
2019-01-14T09:23:25.436Z,937.38
2019-01-14T09:25:53.991Z,937.37
2019-01-14T09:28:18.059Z,937.32
2019-01-14T09:30:44.359Z,937.33
2019-01-14T09:33:10.655Z,937.37
2019-01-14T09:35:36.982Z,937.43
2019-01-14T09:38:03.287Z,937.38
2019-01-14T09:40:29.612Z,937.30
2019-01-14T09:42:55.912Z,937.33
2019-01-14T09:45:22.223Z,937.34
2019-01-14T09:47:48.530Z,937.30
2019-01-14T09:50:14.842Z,937.30
2019-01-14T09:52:41.167Z,937.22
2019-01-14T09:55:07.454Z,937.29
2019-01-14T09:57:34.731Z,937.11
2019-01-14T10:00:00.163Z,937.10
2019-01-14T10:02:26.433Z,937.12
2019-01-14T10:04:52.711Z,937.13
2019-01-14T10:07:19.192Z,937.08
2019-01-14T10:09:45.491Z,937.09
2019-01-14T10:12:11.797Z,937.19
2019-01-14T10:14:38.099Z,937.08
2019-01-14T10:17:04.411Z,937.14
2019-01-14T10:19:30.707Z,937.08
2019-01-14T10:21:57.014Z,937.02
2019-01-14T10:24:23.320Z,937.02
2019-01-14T10:26:49.630Z,936.96
2019-01-14T10:29:15.923Z,937.01
2019-01-14T10:31:42.216Z,936.99
2019-01-14T10:34:08.521Z,936.91
2019-01-14T10:36:34.852Z,936.92
2019-01-14T10:39:01.213Z,936.87
2019-01-14T10:41:27.523Z,936.78
2019-01-14T10:43:53.838Z,936.85
2019-01-14T10:46:20.137Z,936.79
2019-01-14T10:48:46.604Z,936.75
2019-01-14T10:51:12.914Z,936.77
2019-01-14T10:53:39.233Z,936.70
2019-01-14T10:56:05.546Z,936.68
2019-01-14T10:58:32.128Z,936.65
2019-01-14T11:00:58.384Z,936.66
2019-01-14T11:03:24.681Z,936.60
2019-01-14T11:05:51.045Z,936.61
2019-01-14T11:08:17.291Z,936.69
2019-01-14T11:10:43.619Z,936.57
2019-01-14T11:13:09.910Z,936.61
2019-01-14T11:15:36.202Z,936.57
2019-01-14T11:18:02.519Z,936.49
2019-01-14T11:20:28.825Z,936.51
2019-01-14T11:22:55.179Z,936.48
2019-01-14T11:25:21.486Z,936.47
2019-01-14T11:27:47.786Z,936.48
2019-01-14T11:30:14.199Z,936.51
2019-01-14T11:32:40.468Z,936.46
2019-01-14T11:35:06.769Z,936.39
2019-01-14T11:37:33.067Z,936.49
2019-01-14T11:39:59.368Z,936.45
2019-01-14T11:42:25.660Z,936.44
2019-01-14T11:44:51.971Z,936.51
2019-01-14T11:47:18.283Z,936.52
2019-01-14T11:49:44.581Z,936.48
2019-01-14T11:52:10.912Z,936.47
2019-01-14T11:54:37.226Z,936.43
2019-01-14T11:57:03.525Z,936.44
2019-01-14T11:59:29.824Z,936.42
2019-01-14T12:01:56.138Z,936.40
2019-01-14T12:04:22.441Z,936.43
2019-01-14T12:06:48.755Z,936.47
2019-01-14T12:09:15.096Z,936.47
2019-01-14T12:11:41.420Z,936.49
2019-01-14T12:14:07.708Z,936.55
2019-01-14T12:16:34.042Z,936.54
2019-01-14T12:19:00.341Z,936.51
2019-01-14T12:21:26.708Z,936.49
2019-01-14T12:23:53.031Z,936.51
2019-01-14T12:26:19.395Z,936.47
2019-01-14T12:28:45.693Z,936.57
2019-01-14T12:31:12.002Z,936.49
2019-01-14T12:33:38.318Z,936.50
2019-01-14T12:36:04.611Z,936.49
2019-01-14T12:38:30.911Z,936.51
2019-01-14T12:40:57.250Z,936.52
2019-01-14T12:43:23.546Z,936.54
2019-01-14T12:45:49.853Z,936.52
2019-01-14T12:48:16.165Z,936.47
2019-01-14T12:50:42.515Z,936.43
2019-01-14T12:53:08.788Z,936.48
2019-01-14T12:55:35.114Z,936.48
2019-01-14T12:58:01.413Z,936.47
2019-01-14T13:00:27.730Z,936.47
2019-01-14T13:02:58.294Z,936.49
2019-01-14T13:05:20.365Z,936.50
2019-01-14T13:07:46.665Z,936.54
2019-01-14T13:10:12.962Z,936.48
2019-01-14T13:12:39.255Z,936.50
2019-01-14T13:15:05.553Z,936.56
2019-01-14T13:17:31.883Z,936.54
2019-01-14T13:19:58.194Z,936.53
2019-01-14T13:22:24.503Z,936.59
2019-01-14T13:24:50.810Z,936.64
2019-01-14T13:27:17.124Z,936.63
2019-01-14T13:29:43.435Z,936.65
2019-01-14T13:32:09.750Z,936.64
2019-01-14T13:34:36.038Z,936.61
2019-01-14T13:37:02.343Z,936.50
2019-01-14T13:39:33.908Z,936.52
2019-01-14T13:41:54.943Z,936.44
2019-01-14T13:44:21.258Z,936.50
2019-01-14T13:46:47.561Z,936.48
2019-01-14T13:49:13.868Z,936.50
2019-01-14T13:51:40.174Z,936.51
2019-01-14T13:54:06.481Z,936.39
2019-01-14T13:56:32.799Z,936.55
2019-01-14T13:58:59.109Z,936.44
2019-01-14T14:01:25.412Z,936.49
2019-01-14T14:03:51.722Z,936.45
2019-01-14T14:06:18.043Z,936.49
2019-01-14T14:08:44.334Z,936.49
2019-01-14T14:11:10.636Z,936.52
2019-01-14T14:13:36.965Z,936.56
2019-01-14T14:16:03.270Z,936.59
2019-01-14T14:18:29.569Z,936.54
2019-01-14T14:20:55.903Z,936.57
2019-01-14T14:23:22.248Z,936.67
2019-01-14T14:25:48.535Z,936.73
2019-01-14T14:28:14.843Z,936.75
2019-01-14T14:30:41.155Z,936.75
2019-01-14T14:33:07.453Z,936.83
2019-01-14T14:35:33.772Z,936.92
2019-01-14T14:38:01.310Z,936.92
2019-01-14T14:40:26.394Z,936.91
2019-01-14T14:42:52.692Z,936.99
2019-01-14T14:45:19.002Z,936.98
2019-01-14T14:47:45.318Z,937.09
2019-01-14T14:50:11.612Z,937.07
2019-01-14T14:52:37.933Z,937.06
2019-01-14T14:55:04.228Z,937.09
2019-01-14T14:57:30.534Z,937.16
2019-01-14T14:59:56.881Z,937.17
2019-01-14T15:02:23.170Z,937.19
2019-01-14T15:04:49.484Z,937.22
2019-01-14T15:07:15.791Z,937.22
2019-01-14T15:09:42.081Z,937.20
2019-01-14T15:12:08.384Z,937.18
2019-01-14T15:14:34.679Z,937.07
2019-01-14T15:17:00.978Z,937.18
2019-01-14T15:19:27.269Z,937.21
2019-01-14T15:21:53.573Z,937.22
2019-01-14T15:24:19.887Z,937.13
2019-01-14T15:26:46.194Z,937.18
2019-01-14T15:29:12.488Z,937.22
2019-01-14T15:31:38.802Z,937.26
2019-01-14T15:34:05.095Z,937.28
2019-01-14T15:36:31.394Z,937.33
2019-01-14T15:38:57.709Z,937.37
2019-01-14T15:41:24.032Z,937.40
2019-01-14T15:43:50.310Z,937.48
2019-01-14T15:46:16.602Z,937.47
2019-01-14T15:48:42.905Z,937.48
2019-01-14T15:51:09.253Z,937.47
2019-01-14T15:53:35.568Z,937.49
2019-01-14T15:56:01.864Z,937.59
2019-01-14T15:58:28.175Z,937.53
2019-01-14T16:00:54.483Z,937.65
2019-01-14T16:03:20.779Z,937.64
2019-01-14T16:05:47.076Z,937.71
2019-01-14T16:08:13.552Z,937.66
2019-01-14T16:10:39.853Z,937.65
2019-01-14T16:13:06.172Z,937.74
2019-01-14T16:15:32.481Z,937.69
2019-01-14T16:17:58.781Z,937.71
2019-01-14T16:20:26.119Z,937.77
2019-01-14T16:22:52.403Z,937.81
2019-01-14T16:25:18.714Z,937.84
2019-01-14T16:27:45.007Z,937.89
2019-01-14T16:30:11.319Z,937.94
2019-01-14T16:32:37.623Z,938.01
2019-01-14T16:35:03.917Z,938.01
2019-01-14T16:37:30.231Z,938.02
2019-01-14T16:39:56.539Z,938.03
2019-01-14T16:42:22.846Z,937.98
2019-01-14T16:44:49.147Z,937.94
2019-01-14T16:47:23.457Z,938.09
2019-01-14T16:49:48.803Z,937.97
2019-01-14T16:52:15.150Z,938.07
2019-01-14T16:54:41.461Z,937.97
2019-01-14T16:57:07.759Z,937.97
2019-01-14T16:59:34.066Z,937.98
2019-01-14T17:02:00.372Z,938.06
2019-01-14T17:04:26.665Z,938.01
2019-01-14T17:06:52.959Z,938.03
2019-01-14T17:09:19.258Z,938.10
2019-01-14T17:11:45.552Z,938.06
2019-01-14T17:14:11.938Z,938.20
2019-01-14T17:16:38.231Z,938.24
2019-01-14T17:19:04.541Z,938.16
2019-01-14T17:21:30.837Z,938.16
2019-01-14T17:23:57.135Z,938.17
2019-01-14T17:26:23.450Z,938.27
2019-01-14T17:28:49.857Z,938.27
2019-01-14T17:31:16.169Z,938.21
2019-01-14T17:33:42.524Z,938.26
2019-01-14T17:36:08.820Z,938.27
2019-01-14T17:38:35.120Z,938.34
2019-01-14T17:41:01.414Z,938.30
2019-01-14T17:43:27.729Z,938.41
2019-01-14T17:45:54.114Z,938.48
2019-01-14T17:48:20.426Z,938.46
2019-01-14T17:50:46.719Z,938.54
2019-01-14T17:53:13.023Z,938.49
2019-01-14T17:55:39.634Z,938.48
2019-01-14T17:58:06.010Z,938.46
2019-01-14T18:00:32.367Z,938.54
2019-01-14T18:02:58.677Z,938.51
2019-01-14T18:05:24.977Z,938.50
2019-01-14T18:07:51.279Z,938.48
2019-01-14T18:10:18.860Z,938.55
2019-01-14T18:12:43.895Z,938.34
2019-01-14T18:15:10.199Z,938.32
2019-01-14T18:17:36.501Z,938.48
2019-01-14T18:20:13.102Z,938.51
2019-01-14T18:22:39.514Z,938.66
2019-01-14T18:25:05.929Z,938.60
2019-01-14T18:27:32.779Z,938.62
2019-01-14T18:29:58.969Z,938.56
2019-01-14T18:32:25.274Z,938.61
2019-01-14T18:34:51.581Z,938.64
2019-01-14T18:37:17.898Z,938.65
2019-01-14T18:39:44.213Z,938.69
2019-01-14T18:42:10.533Z,938.78
2019-01-14T18:44:37.162Z,938.70
2019-01-14T18:47:03.476Z,938.79
2019-01-14T18:49:31.258Z,938.77
2019-01-14T18:51:56.648Z,938.80
2019-01-14T18:54:22.923Z,938.77
2019-01-14T18:56:49.256Z,938.88
2019-01-14T18:59:15.886Z,938.95
2019-01-14T19:01:42.196Z,938.96
2019-01-14T19:04:08.504Z,938.97
2019-01-14T19:06:34.793Z,939.01
2019-01-14T19:09:01.091Z,939.01
2019-01-14T19:11:27.438Z,938.90
2019-01-14T19:13:53.707Z,938.97
2019-01-14T19:16:20.013Z,939.00
2019-01-14T19:18:46.358Z,939.02
2019-01-14T19:21:12.667Z,939.12
2019-01-14T19:23:38.980Z,939.15
2019-01-14T19:26:05.289Z,939.12
2019-01-14T19:28:31.602Z,939.10
2019-01-14T19:30:57.914Z,939.10
2019-01-14T19:33:24.219Z,939.16
2019-01-14T19:35:50.862Z,939.02
2019-01-14T19:38:17.311Z,938.96
2019-01-14T19:40:43.616Z,939.04
2019-01-14T19:43:09.919Z,939.02
2019-01-14T19:45:36.206Z,939.10
2019-01-14T19:48:02.526Z,939.10
2019-01-14T19:50:28.813Z,939.14
2019-01-14T19:52:55.172Z,939.20
2019-01-14T19:55:21.468Z,939.28
2019-01-14T19:57:47.903Z,939.29
2019-01-14T20:00:14.270Z,939.36
2019-01-14T20:02:40.562Z,939.40
2019-01-14T20:05:06.859Z,939.37
2019-01-14T20:07:36.325Z,939.42
2019-01-14T20:10:02.636Z,939.29
2019-01-14T20:12:28.945Z,939.38
2019-01-14T20:14:55.246Z,939.40
2019-01-14T20:17:21.560Z,939.45
2019-01-14T20:19:47.874Z,939.43
2019-01-14T20:22:15.139Z,939.51
2019-01-14T20:24:41.462Z,939.46
2019-01-14T20:27:07.940Z,939.37
2019-01-14T20:29:34.237Z,939.43
2019-01-14T20:32:00.538Z,939.47
2019-01-14T20:34:26.837Z,939.47
2019-01-14T20:36:53.198Z,939.45
2019-01-14T20:39:19.436Z,939.50
2019-01-14T20:41:45.913Z,939.56
2019-01-14T20:44:12.234Z,939.54
2019-01-14T20:46:38.529Z,939.57
2019-01-14T20:49:04.945Z,939.59
2019-01-14T20:51:31.239Z,939.59
2019-01-14T20:53:57.542Z,939.63
2019-01-14T20:56:23.867Z,939.68
2019-01-14T20:58:50.118Z,939.69
2019-01-14T21:01:16.414Z,939.65
2019-01-14T21:03:42.729Z,939.84
2019-01-14T21:06:09.056Z,939.83
2019-01-14T21:08:35.361Z,939.87
2019-01-14T21:11:01.665Z,939.89
2019-01-14T21:13:27.978Z,939.88
2019-01-14T21:15:54.277Z,939.97
2019-01-14T21:18:20.762Z,939.82
2019-01-14T21:20:47.075Z,939.85
2019-01-14T21:23:13.371Z,939.98
2019-01-14T21:25:39.755Z,939.94
2019-01-14T21:28:06.055Z,939.96
2019-01-14T21:30:32.385Z,940.02
2019-01-14T21:32:58.735Z,939.96
2019-01-14T21:35:25.352Z,939.91
2019-01-14T21:37:51.574Z,939.86
2019-01-14T21:40:17.883Z,939.80
2019-01-14T21:42:44.197Z,939.84
2019-01-14T21:45:10.496Z,939.96
2019-01-14T21:47:36.801Z,939.89
2019-01-14T21:50:03.125Z,939.92
2019-01-14T21:52:29.548Z,939.95
2019-01-14T21:54:55.764Z,939.93
2019-01-14T21:57:22.067Z,939.90
2019-01-14T21:59:48.381Z,939.96
2019-01-14T22:02:14.677Z,939.80
2019-01-14T22:04:40.983Z,939.79
2019-01-14T22:07:07.372Z,939.81
2019-01-14T22:09:33.655Z,940.02
2019-01-14T22:12:00.158Z,940.03
2019-01-14T22:14:26.661Z,939.84
2019-01-14T22:16:52.902Z,940.02
2019-01-14T22:19:19.210Z,940.05
2019-01-14T22:21:45.513Z,940.14
2019-01-14T22:24:14.883Z,940.07
2019-01-14T22:26:41.201Z,940.05
2019-01-14T22:29:07.515Z,940.08
2019-01-14T22:31:33.862Z,940.16
2019-01-14T22:34:00.183Z,940.11
2019-01-14T22:36:26.551Z,940.14
2019-01-14T22:38:52.861Z,940.21
2019-01-14T22:41:19.179Z,940.12
2019-01-14T22:43:45.479Z,940.07
2019-01-14T22:46:11.816Z,940.07
2019-01-14T22:48:38.128Z,940.11
2019-01-14T22:51:04.455Z,940.01
2019-01-14T22:53:30.796Z,940.09
2019-01-14T22:55:57.089Z,940.14
2019-01-14T22:58:23.393Z,940.13
2019-01-14T23:00:49.693Z,940.17
2019-01-14T23:03:15.994Z,940.15
2019-01-14T23:05:42.287Z,940.17
2019-01-14T23:08:08.600Z,940.08
2019-01-14T23:10:34.911Z,940.19
2019-01-14T23:13:01.214Z,940.11
2019-01-14T23:15:27.507Z,940.12
2019-01-14T23:17:53.842Z,940.20
2019-01-14T23:20:20.135Z,940.26
2019-01-14T23:22:46.448Z,940.30
2019-01-14T23:25:12.762Z,940.34
2019-01-14T23:27:39.062Z,940.41
2019-01-14T23:30:07.067Z,940.47
2019-01-14T23:32:33.372Z,940.47
2019-01-14T23:34:59.666Z,940.52
2019-01-14T23:37:25.963Z,940.42
2019-01-14T23:39:52.272Z,940.57
2019-01-14T23:42:18.573Z,940.52
2019-01-14T23:44:44.870Z,940.57
2019-01-14T23:47:11.210Z,940.65
2019-01-14T23:49:38.463Z,940.60
2019-01-14T23:52:03.794Z,940.70
2019-01-14T23:54:36.776Z,940.69
2019-01-14T23:56:56.411Z,940.69
2019-01-14T23:59:22.741Z,940.81
